Time;durP1;ratioP1;P1;durP2;ratioP2;P2;SDS_P1;SDS_P2;PMS_P1;PMS_P2;Temp;Humidity;BMP_temperature;BMP_pressure;BME280_temperature;BME280_humidity;BME280_pressure;Samples;Min_cycle;Max_cycle;Signal;HPM_P1;HPM_P2
2022/03/28 00:01:19;;;;;;;55.95;9.00;;;8.60;99.90;;;;;;5167033;27;20034;-63
2022/03/28 00:03:46;;;;;;;20.65;9.63;;;8.50;99.90;;;;;;5166570;27;20557;-63
2022/03/28 00:06:12;;;;;;;51.70;10.05;;;8.40;99.90;;;;;;5142109;27;20051;-63
2022/03/28 00:08:38;;;;;;;37.85;9.68;;;8.40;99.90;;;;;;5148259;27;20054;-63
2022/03/28 00:11:08;;;;;;;53.05;9.80;;;8.40;99.90;;;;;;5166929;27;20110;-63
2022/03/28 00:13:35;;;;;;;15.82;9.57;;;8.40;99.90;;;;;;5165959;27;20046;-63
2022/03/28 00:16:02;;;;;;;17.33;10.40;;;8.40;99.90;;;;;;5147910;27;20043;-63
2022/03/28 00:18:28;;;;;;;29.45;10.85;;;8.40;99.90;;;;;;5166233;27;20050;-63
2022/03/28 00:20:55;;;;;;;14.63;10.10;;;8.50;99.90;;;;;;5147059;27;20034;-63
2022/03/28 00:23:22;;;;;;;23.25;10.68;;;8.60;99.90;;;;;;5165341;27;20055;-63
2022/03/28 00:25:48;;;;;;;27.50;11.57;;;8.70;99.90;;;;;;5147496;27;20046;-63
2022/03/28 00:28:14;;;;;;;18.35;10.00;;;8.60;99.90;;;;;;5164656;27;20030;-63
2022/03/28 00:30:41;;;;;;;38.58;11.05;;;8.50;99.90;;;;;;5146832;27;20094;-63
2022/03/28 00:33:07;;;;;;;46.35;12.10;;;8.50;99.90;;;;;;5166459;27;20039;-63
2022/03/28 00:35:35;;;;;;;29.10;11.70;;;8.40;99.90;;;;;;5165662;27;20042;-63
2022/03/28 00:38:02;;;;;;;37.10;11.32;;;8.30;99.90;;;;;;5147519;27;20079;-63
2022/03/28 00:40:31;;;;;;;56.92;12.82;;;8.30;99.90;;;;;;5147676;27;20034;-63
2022/03/28 00:43:03;;;;;;;16.88;9.27;;;8.30;99.90;;;;;;5166217;27;20050;-63
2022/03/28 00:45:30;;;;;;;33.67;12.93;;;8.30;99.90;;;;;;5164044;27;20106;-63
2022/03/28 00:47:55;;;;;;;25.00;12.48;;;8.20;99.90;;;;;;5147718;27;20081;-63
2022/03/28 00:50:21;;;;;;;22.20;11.57;;;8.10;99.90;;;;;;5166973;27;20104;-63
2022/03/28 00:52:47;;;;;;;20.48;10.35;;;7.90;99.90;;;;;;5147376;27;20053;-64
2022/03/28 00:55:13;;;;;;;22.67;11.90;;;7.90;99.90;;;;;;5147195;27;20050;-63
2022/03/28 00:57:40;;;;;;;32.38;12.48;;;7.80;99.90;;;;;;5165339;27;20047;-63
2022/03/28 01:00:09;;;;;;;46.65;12.52;;;7.80;99.90;;;;;;5147109;27;20094;-64
2022/03/28 01:02:35;;;;;;;66.93;13.50;;;7.80;99.90;;;;;;5165978;27;20054;-63
2022/03/28 01:05:02;;;;;;;57.60;14.35;;;7.80;99.90;;;;;;5166615;27;20043;-63
2022/03/28 01:07:28;;;;;;;17.40;12.52;;;7.70;99.90;;;;;;5166905;27;20035;-63
2022/03/28 01:09:56;;;;;;;36.63;12.85;;;7.80;99.90;;;;;;5166257;27;20043;-64
2022/03/28 01:12:25;;;;;;;17.48;12.68;;;7.90;99.90;;;;;;5166349;27;20039;-64
2022/03/28 01:14:51;;;;;;;20.30;12.23;;;7.80;99.90;;;;;;5144897;27;20106;-63
2022/03/28 01:20:01;;;;;;;27.45;12.90;;;7.90;99.90;;;;;;5136175;27;20398;-64
2022/03/28 01:22:27;;;;;;;62.17;13.95;;;8.00;99.90;;;;;;5148092;27;20046;-63
2022/03/28 01:24:58;;;;;;;45.67;14.38;;;7.90;99.90;;;;;;5163644;27;20100;-64
2022/03/28 01:27:25;;;;;;;30.92;12.80;;;7.80;99.90;;;;;;5146897;27;20055;-63
2022/03/28 01:29:51;;;;;;;32.03;13.68;;;7.90;99.90;;;;;;5165434;27;20049;-63
2022/03/28 01:32:17;;;;;;;23.50;14.40;;;7.80;99.90;;;;;;5165562;27;20038;-63
2022/03/28 01:34:43;;;;;;;50.40;15.45;;;7.80;99.90;;;;;;5147462;27;20057;-63
2022/03/28 01:37:08;;;;;;;51.42;14.45;;;7.60;99.90;;;;;;5165396;27;20552;-63
2022/03/28 01:39:34;;;;;;;53.42;15.60;;;7.70;99.90;;;;;;5147261;27;20046;-63
2022/03/28 01:42:00;;;;;;;55.75;15.98;;;7.70;99.90;;;;;;5166379;27;20035;-64
2022/03/28 01:44:26;;;;;;;55.33;16.20;;;7.70;99.90;;;;;;5148581;27;20050;-64
2022/03/28 01:46:52;;;;;;;66.28;15.32;;;7.70;99.90;;;;;;5170022;27;20107;-63
2022/03/28 01:49:19;;;;;;;44.15;14.70;;;7.70;99.90;;;;;;5170035;27;20086;-63
2022/03/28 01:51:46;;;;;;;45.42;14.95;;;7.90;99.90;;;;;;5168196;27;20043;-64
2022/03/28 01:54:12;;;;;;;40.60;14.25;;;7.90;99.90;;;;;;5168087;27;20038;-64
2022/03/28 01:56:39;;;;;;;23.33;14.32;;;8.00;99.90;;;;;;5169493;27;20054;-63
2022/03/28 01:59:07;;;;;;;28.17;14.98;;;7.90;99.90;;;;;;5169001;27;20049;-63
2022/03/28 02:01:33;;;;;;;22.98;14.35;;;7.90;99.90;;;;;;5163437;27;20023;-63
2022/03/28 02:03:59;;;;;;;20.05;13.80;;;8.00;99.90;;;;;;5146706;27;20291;-64
2022/03/28 02:06:26;;;;;;;46.80;14.27;;;7.90;99.90;;;;;;5169131;27;20054;-64
2022/03/28 02:08:52;;;;;;;18.58;12.30;;;7.90;99.90;;;;;;5150319;27;20063;-64
2022/03/28 02:11:18;;;;;;;40.65;14.38;;;8.00;99.90;;;;;;5169559;27;20049;-63
2022/03/28 02:13:44;;;;;;;29.52;13.23;;;7.90;99.90;;;;;;5169370;27;20039;-64
2022/03/28 02:16:09;;;;;;;34.42;13.23;;;7.90;99.90;;;;;;5167811;27;20039;-63
2022/03/28 02:18:36;;;;;;;22.63;13.18;;;7.70;99.90;;;;;;5167644;27;20039;-63
2022/03/28 02:21:01;;;;;;;29.42;14.43;;;7.70;99.90;;;;;;5169368;27;20067;-63
2022/03/28 02:23:30;;;;;;;18.88;12.82;;;7.60;99.90;;;;;;5150770;27;20078;-63
2022/03/28 02:25:56;;;;;;;27.25;13.15;;;7.60;99.90;;;;;;5168768;27;20042;-63
2022/03/28 02:28:22;;;;;;;30.35;14.35;;;7.80;99.90;;;;;;5167934;27;20038;-63
2022/03/28 02:30:47;;;;;;;21.00;14.43;;;7.70;99.90;;;;;;5133261;27;20039;-63
2022/03/28 02:33:13;;;;;;;21.08;14.02;;;7.70;99.90;;;;;;5168023;27;20049;-63
2022/03/28 02:35:40;;;;;;;25.75;14.85;;;7.80;99.90;;;;;;5163850;27;20035;-64
2022/03/28 02:38:07;;;;;;;33.78;15.20;;;7.80;99.90;;;;;;5150218;27;20055;-63
2022/03/28 02:40:33;;;;;;;41.05;15.23;;;7.80;99.90;;;;;;5149582;27;20047;-63
2022/03/28 02:42:59;;;;;;;24.77;15.43;;;7.90;99.90;;;;;;5147818;27;20106;-64
2022/03/28 02:45:31;;;;;;;44.15;16.60;;;8.10;99.90;;;;;;5169049;27;20079;-63
2022/03/28 02:47:59;;;;;;;23.63;14.93;;;8.10;99.90;;;;;;5167210;27;20069;-63
2022/03/28 02:50:25;;;;;;;28.15;15.70;;;7.90;99.90;;;;;;5150057;27;20050;-63
2022/03/28 02:52:51;;;;;;;31.10;17.35;;;7.90;99.90;;;;;;5168912;27;20091;-63
2022/03/28 02:55:17;;;;;;;27.17;15.15;;;8.10;99.90;;;;;;5149458;27;20043;-63
2022/03/28 02:57:43;;;;;;;27.48;17.33;;;8.10;99.90;;;;;;5149996;27;20070;-63
2022/03/28 03:00:10;;;;;;;29.52;16.75;;;8.00;99.90;;;;;;5149163;27;20079;-63
2022/03/28 03:02:38;;;;;;;26.08;15.13;;;7.90;99.90;;;;;;5167367;27;20039;-63
2022/03/28 03:05:05;;;;;;;25.70;14.88;;;7.90;99.90;;;;;;5168236;27;20043;-63
2022/03/28 03:07:31;;;;;;;31.20;16.52;;;7.80;99.90;;;;;;5165941;27;20045;-63
2022/03/28 03:09:57;;;;;;;25.20;16.92;;;7.80;99.90;;;;;;5167813;27;20094;-63
2022/03/28 03:12:22;;;;;;;27.95;17.23;;;7.80;99.90;;;;;;5149250;27;20043;-63
2022/03/28 03:14:48;;;;;;;29.10;18.50;;;7.90;99.90;;;;;;5149481;27;20070;-63
2022/03/28 03:17:14;;;;;;;26.55;16.25;;;7.90;99.90;;;;;;5167417;27;20695;-63
2022/03/28 03:19:40;;;;;;;30.35;18.77;;;8.10;99.90;;;;;;5167464;27;20042;-63
2022/03/28 03:22:07;;;;;;;30.25;18.48;;;8.00;99.90;;;;;;5164805;27;20043;-63
2022/03/28 03:24:34;;;;;;;27.77;17.88;;;8.00;99.90;;;;;;5150111;27;20172;-64
2022/03/28 03:27:00;;;;;;;26.20;17.17;;;8.10;99.90;;;;;;5149943;27;20490;-63
2022/03/28 03:29:27;;;;;;;27.92;16.80;;;8.00;99.90;;;;;;5168095;27;20042;-63
2022/03/28 03:31:53;;;;;;;28.58;17.58;;;8.10;99.90;;;;;;5166862;27;20042;-63
2022/03/28 03:34:19;;;;;;;32.47;17.48;;;8.10;99.90;;;;;;5148490;27;20127;-63
2022/03/28 03:36:45;;;;;;;32.78;17.58;;;8.00;99.90;;;;;;5148357;27;20053;-63
2022/03/28 03:39:11;;;;;;;28.60;17.58;;;8.20;99.90;;;;;;5148647;27;20073;-63
2022/03/28 03:41:37;;;;;;;27.95;16.30;;;8.10;99.90;;;;;;5148578;27;20049;-63
2022/03/28 03:44:03;;;;;;;33.10;18.48;;;8.00;99.90;;;;;;5149081;27;20035;-63
2022/03/28 03:46:29;;;;;;;29.23;17.67;;;7.90;99.90;;;;;;5148034;27;20051;-63
2022/03/28 03:48:55;;;;;;;33.50;19.48;;;7.90;99.90;;;;;;5149282;27;20041;-63
2022/03/28 03:51:20;;;;;;;31.30;18.70;;;7.80;99.90;;;;;;5167332;27;20043;-63
2022/03/28 03:53:46;;;;;;;29.30;17.27;;;7.90;99.90;;;;;;5167811;27;20050;-63
2022/03/28 03:56:12;;;;;;;35.70;18.48;;;7.80;99.90;;;;;;5167395;27;20043;-63
2022/03/28 03:58:38;;;;;;;31.25;18.48;;;7.70;99.90;;;;;;5167600;27;20505;-63
2022/03/28 04:01:04;;;;;;;30.70;16.92;;;7.70;99.90;;;;;;5167736;27;20034;-63
2022/03/28 04:03:29;;;;;;;27.20;16.77;;;7.70;99.90;;;;;;5188512;27;20489;-63
2022/03/28 04:05:55;;;;;;;29.40;17.80;;;7.70;99.90;;;;;;5170146;27;20084;-63
2022/03/28 04:08:21;;;;;;;31.27;18.45;;;7.60;99.90;;;;;;5188515;27;20048;-63
2022/03/28 04:10:47;;;;;;;28.65;17.38;;;7.50;99.90;;;;;;5183376;27;20042;-63
2022/03/28 04:13:13;;;;;;;30.27;17.95;;;7.50;99.90;;;;;;5167430;27;20043;-63
2022/03/28 04:15:39;;;;;;;29.58;17.77;;;7.60;99.90;;;;;;5148825;27;20054;-64
2022/03/28 04:18:05;;;;;;;31.80;18.38;;;7.60;99.90;;;;;;5167304;27;20504;-63
2022/03/28 04:20:32;;;;;;;29.95;19.45;;;7.70;99.90;;;;;;5147818;27;20099;-63
2022/03/28 04:22:58;;;;;;;32.70;18.63;;;7.60;99.90;;;;;;5148440;27;20043;-63
2022/03/28 04:25:24;;;;;;;32.40;19.65;;;7.80;99.90;;;;;;5161832;27;20057;-63
2022/03/28 04:27:50;;;;;;;30.70;18.98;;;7.70;99.90;;;;;;5127823;27;20057;-63
2022/03/28 04:30:16;;;;;;;30.63;18.63;;;7.80;99.90;;;;;;5131119;27;20053;-63
2022/03/28 04:32:42;;;;;;;32.72;17.83;;;7.80;99.90;;;;;;5154140;27;20043;-64
2022/03/28 04:35:10;;;;;;;27.65;16.13;;;7.80;99.90;;;;;;5116997;27;20581;-63
2022/03/28 04:37:37;;;;;;;24.60;16.08;;;7.80;99.90;;;;;;5144741;27;20051;-63
2022/03/28 04:40:06;;;;;;;22.98;15.20;;;7.80;99.90;;;;;;5144054;27;20050;-64
2022/03/28 04:42:32;;;;;;;18.48;14.27;;;7.90;99.90;;;;;;5124532;27;20052;-64
2022/03/28 04:44:58;;;;;;;22.88;14.18;;;7.90;99.90;;;;;;5100130;27;20047;-63
2022/03/28 04:47:24;;;;;;;18.98;14.10;;;7.80;99.90;;;;;;5109321;27;20065;-64
2022/03/28 04:49:49;;;;;;;20.52;13.77;;;7.70;99.90;;;;;;5109352;27;20055;-64
2022/03/28 04:52:15;;;;;;;21.17;14.77;;;7.60;99.90;;;;;;5108557;28;20106;-63
2022/03/28 04:54:41;;;;;;;21.17;14.15;;;7.60;99.90;;;;;;5119559;28;20054;-63
2022/03/28 04:57:07;;;;;;;20.13;13.88;;;7.60;99.90;;;;;;5109887;27;20055;-64
2022/03/28 04:59:33;;;;;;;22.73;14.82;;;7.70;99.90;;;;;;5103114;28;20054;-64
2022/03/28 05:01:59;;;;;;;25.58;15.23;;;7.60;99.90;;;;;;5123269;28;20047;-63
2022/03/28 05:04:26;;;;;;;25.45;15.57;;;7.60;99.90;;;;;;5120292;27;20096;-63
2022/03/28 05:06:52;;;;;;;23.38;15.60;;;7.50;99.90;;;;;;5095399;28;20059;-64
2022/03/28 05:09:18;;;;;;;27.15;17.15;;;7.60;99.90;;;;;;5101894;28;20051;-64
2022/03/28 05:11:44;;;;;;;32.85;18.85;;;7.60;99.90;;;;;;5095488;28;20147;-64
2022/03/28 05:14:10;;;;;;;35.28;19.38;;;7.60;99.90;;;;;;5132487;27;20050;-64
2022/03/28 05:16:36;;;;;;;36.80;21.08;;;7.60;99.90;;;;;;5096916;28;20051;-64
2022/03/28 05:19:03;;;;;;;33.50;19.10;;;7.80;99.90;;;;;;5138209;27;20065;-66
2022/03/28 05:21:29;;;;;;;37.05;20.02;;;7.80;99.90;;;;;;5111111;27;20112;-64
2022/03/28 05:23:55;;;;;;;32.38;18.25;;;7.70;99.90;;;;;;5149320;27;20047;-63
2022/03/28 05:26:20;;;;;;;31.15;17.38;;;7.60;99.90;;;;;;5127164;27;20051;-63
2022/03/28 05:28:46;;;;;;;33.50;18.65;;;7.70;99.90;;;;;;5141104;27;20231;-64
2022/03/28 05:31:12;;;;;;;32.05;17.50;;;7.60;99.90;;;;;;5128163;27;20931;-64
2022/03/28 05:33:38;;;;;;;34.22;17.60;;;7.60;99.90;;;;;;5115324;27;20130;-63
2022/03/28 05:36:04;;;;;;;29.17;16.33;;;7.60;99.90;;;;;;5148119;27;20341;-63
2022/03/28 05:38:30;;;;;;;27.80;16.20;;;7.60;99.90;;;;;;5134844;27;20053;-64
2022/03/28 05:40:57;;;;;;;26.60;16.05;;;7.70;99.90;;;;;;5148889;27;20049;-63
2022/03/28 05:43:24;;;;;;;27.77;15.30;;;7.70;99.90;;;;;;5151517;27;20038;-63
2022/03/28 05:45:50;;;;;;;27.00;14.50;;;7.80;99.90;;;;;;5133213;27;20108;-63
2022/03/28 05:48:16;;;;;;;25.02;13.80;;;7.60;99.90;;;;;;5143189;27;20055;-63
2022/03/28 05:50:42;;;;;;;22.63;13.93;;;7.50;99.90;;;;;;5132616;27;20072;-63
2022/03/28 05:53:09;;;;;;;25.20;13.52;;;7.40;99.90;;;;;;5152853;27;20048;-64
2022/03/28 05:55:35;;;;;;;22.67;12.98;;;7.60;99.90;;;;;;5149351;27;20069;-63
2022/03/28 05:58:00;;;;;;;18.10;10.30;;;7.60;99.90;;;;;;5143974;27;20541;-63
2022/03/28 06:00:26;;;;;;;18.63;10.88;;;7.60;99.90;;;;;;5151291;27;20091;-63
2022/03/28 06:02:52;;;;;;;19.73;11.20;;;7.60;99.90;;;;;;5143476;27;20173;-64
2022/03/28 06:05:17;;;;;;;21.45;11.98;;;7.40;99.90;;;;;;5150721;27;20049;-65
2022/03/28 06:07:43;;;;;;;21.90;11.88;;;7.50;99.90;;;;;;5143233;27;20054;-66
2022/03/28 06:10:09;;;;;;;21.13;11.48;;;7.50;99.90;;;;;;5161353;27;20078;-66
2022/03/28 06:12:35;;;;;;;20.83;11.77;;;7.40;99.90;;;;;;5132437;27;20109;-66
2022/03/28 06:15:01;;;;;;;18.27;11.48;;;7.40;99.90;;;;;;5142893;27;20046;-66
2022/03/28 06:17:27;;;;;;;21.65;11.10;;;7.30;99.90;;;;;;5102767;27;20578;-65
2022/03/28 06:19:53;;;;;;;17.13;10.18;;;7.40;99.90;;;;;;5141463;27;20072;-65
2022/03/28 06:22:19;;;;;;;15.05;9.43;;;7.30;99.90;;;;;;5131986;27;20099;-65
2022/03/28 06:24:45;;;;;;;15.27;9.65;;;7.40;99.90;;;;;;5160739;27;20529;-65
2022/03/28 06:27:12;;;;;;;16.63;9.82;;;7.40;99.90;;;;;;5149551;27;20065;-65
2022/03/28 06:29:37;;;;;;;15.80;9.48;;;7.40;99.90;;;;;;5159100;27;20053;-66
2022/03/28 06:32:04;;;;;;;15.98;9.43;;;7.40;99.90;;;;;;5148964;27;20039;-68
2022/03/28 06:34:30;;;;;;;15.60;9.68;;;7.30;99.90;;;;;;5149078;27;20050;-66
2022/03/28 06:36:57;;;;;;;15.00;8.90;;;7.50;99.90;;;;;;5132063;27;20350;-67
2022/03/28 06:39:23;;;;;;;16.17;8.18;;;7.50;99.90;;;;;;5141905;27;20043;-66
2022/03/28 06:41:49;;;;;;;14.82;8.60;;;7.50;99.90;;;;;;5124029;27;20047;-66
2022/03/28 06:44:16;;;;;;;15.60;8.43;;;7.60;99.90;;;;;;5137077;27;20168;-67
2022/03/28 06:46:43;;;;;;;11.98;7.25;;;7.70;99.90;;;;;;5131398;27;20047;-67
2022/03/28 06:49:09;;;;;;;13.35;7.43;;;7.70;99.90;;;;;;5153176;27;20035;-67
2022/03/28 06:51:35;;;;;;;13.07;8.13;;;7.60;99.90;;;;;;5159550;27;20103;-67
2022/03/28 06:54:04;;;;;;;12.38;7.68;;;7.60;99.90;;;;;;5140447;27;20039;-66
2022/03/28 06:56:30;;;;;;;12.68;7.15;;;7.60;99.90;;;;;;5143156;27;20054;-67
2022/03/28 06:58:56;;;;;;;12.50;7.10;;;7.60;99.90;;;;;;5112521;27;20049;-67
2022/03/28 07:01:22;;;;;;;11.63;6.63;;;7.60;99.90;;;;;;5141039;27;20103;-66
2022/03/28 07:03:47;;;;;;;12.52;6.80;;;7.70;99.90;;;;;;5132954;27;20101;-66
2022/03/28 07:06:13;;;;;;;11.05;6.53;;;7.80;99.90;;;;;;5152061;27;20057;-66
2022/03/28 07:08:38;;;;;;;11.40;6.53;;;7.70;99.90;;;;;;5130201;27;20051;-66
2022/03/28 07:11:04;;;;;;;10.23;6.18;;;7.70;99.90;;;;;;5140629;27;20185;-67
2022/03/28 07:13:30;;;;;;;9.30;6.10;;;7.70;99.90;;;;;;5141269;27;20084;-66
2022/03/28 07:15:56;;;;;;;11.75;6.35;;;7.80;99.90;;;;;;5141582;27;20047;-66
2022/03/28 07:18:22;;;;;;;11.40;6.43;;;7.70;99.90;;;;;;5130394;27;20122;-66
2022/03/28 07:20:50;;;;;;;15.00;7.85;;;7.70;99.90;;;;;;5138245;27;20082;-66
2022/03/28 07:23:17;;;;;;;12.98;7.65;;;7.90;99.90;;;;;;5129162;27;20527;-66
2022/03/28 07:25:45;;;;;;;12.60;7.60;;;7.80;99.90;;;;;;5140426;27;20043;-66
2022/03/28 07:28:12;;;;;;;10.75;6.85;;;7.80;99.90;;;;;;5130382;27;20043;-66
2022/03/28 07:30:39;;;;;;;11.88;7.00;;;7.80;99.90;;;;;;5120091;27;20030;-67
2022/03/28 07:33:06;;;;;;;10.48;6.13;;;7.90;99.90;;;;;;5131264;27;20054;-64
2022/03/28 07:35:36;;;;;;;10.57;6.13;;;7.90;99.90;;;;;;5128848;27;20493;-66
2022/03/28 07:38:02;;;;;;;;;;;7.80;99.90;;;;;;5130538;27;20071;-66
2022/03/28 07:40:28;;;;;;;12.20;6.70;;;7.70;99.90;;;;;;5139647;27;19977;-66
2022/03/28 07:42:54;;;;;;;11.70;6.00;;;7.70;99.90;;;;;;5147169;27;20038;-66
2022/03/28 07:45:23;;;;;;;8.45;5.47;;;7.70;99.90;;;;;;5157448;27;20045;-67
2022/03/28 07:47:49;;;;;;;12.00;6.32;;;7.70;99.90;;;;;;5147894;27;20043;-66
2022/03/28 07:50:15;;;;;;;9.25;5.90;;;7.70;99.90;;;;;;5138619;27;20423;-66
2022/03/28 07:52:41;;;;;;;10.85;6.72;;;7.80;99.90;;;;;;5147862;27;20080;-66
2022/03/28 07:55:08;;;;;;;10.93;6.20;;;7.60;99.90;;;;;;5139276;27;20062;-66
2022/03/28 07:57:35;;;;;;;11.13;6.72;;;7.60;99.90;;;;;;5148549;27;20062;-66
2022/03/28 08:00:02;;;;;;;11.05;7.15;;;7.60;99.90;;;;;;5139112;27;20046;-66
2022/03/28 08:02:28;;;;;;;12.13;6.75;;;7.60;99.90;;;;;;5128622;27;20132;-66
2022/03/28 08:04:54;;;;;;;12.38;7.70;;;7.80;99.90;;;;;;5159671;27;20035;-66
2022/03/28 08:07:19;;;;;;;14.20;8.13;;;7.70;99.90;;;;;;5158735;27;20045;-66
2022/03/28 08:09:45;;;;;;;13.55;7.50;;;7.60;99.90;;;;;;5129109;27;20131;-66
2022/03/28 08:12:11;;;;;;;13.27;8.00;;;7.60;99.90;;;;;;5139543;27;20050;-66
2022/03/28 08:14:38;;;;;;;13.52;8.00;;;7.70;99.90;;;;;;5145630;27;20265;-66
2022/03/28 08:17:05;;;;;;;15.95;8.25;;;7.70;99.90;;;;;;5156994;27;20047;-66
2022/03/28 08:19:31;;;;;;;13.00;7.68;;;7.70;99.90;;;;;;5146211;27;20057;-66
2022/03/28 08:21:57;;;;;;;12.98;8.15;;;7.80;99.90;;;;;;5157987;27;20107;-66
2022/03/28 08:24:24;;;;;;;13.88;7.40;;;7.70;99.90;;;;;;5147383;27;20050;-66
2022/03/28 08:26:49;;;;;;;14.75;8.43;;;7.60;99.90;;;;;;5160899;27;20043;-66
2022/03/28 08:29:16;;;;;;;12.90;7.38;;;7.70;99.90;;;;;;5146396;27;20064;-66
2022/03/28 08:31:42;;;;;;;14.25;8.52;;;7.80;99.90;;;;;;5155492;27;20556;-66
2022/03/28 08:34:08;;;;;;;13.23;7.90;;;7.70;99.90;;;;;;5131848;27;20073;-66
2022/03/28 08:36:35;;;;;;;13.15;8.20;;;7.50;99.90;;;;;;5154212;27;20402;-66
2022/03/28 08:39:02;;;;;;;13.75;8.35;;;7.60;99.90;;;;;;5120219;27;20082;-67
2022/03/28 08:41:28;;;;;;;13.75;7.65;;;7.60;99.90;;;;;;5139045;27;20051;-67
2022/03/28 08:43:54;;;;;;;11.05;7.22;;;7.70;99.90;;;;;;5127756;27;20046;-66
2022/03/28 08:46:20;;;;;;;13.15;7.75;;;7.80;99.90;;;;;;5160029;27;20075;-67
2022/03/28 08:48:47;;;;;;;13.25;8.23;;;7.70;99.90;;;;;;5144332;27;20043;-66
2022/03/28 08:51:16;;;;;;;14.63;8.75;;;7.70;99.90;;;;;;5157187;27;20043;-66
2022/03/28 08:53:44;;;;;;;16.03;8.97;;;7.70;99.90;;;;;;5127219;27;20047;-66
2022/03/28 08:56:09;;;;;;;12.52;7.47;;;7.80;99.90;;;;;;5156084;27;20037;-66
2022/03/28 08:58:35;;;;;;;12.50;7.65;;;7.80;99.90;;;;;;5127454;27;20141;-66
2022/03/28 09:01:02;;;;;;;12.35;7.90;;;7.80;99.90;;;;;;5155282;27;20043;-66
2022/03/28 09:03:35;;;;;;;14.48;8.52;;;7.70;99.90;;;;;;5146922;27;20149;-67
2022/03/28 09:06:21;;;;;;;13.13;8.45;;;7.80;99.90;;;;;;5154293;27;20043;-66
2022/03/28 09:08:47;;;;;;;15.13;8.95;;;7.80;99.90;;;;;;5147815;27;20066;-66
2022/03/28 09:11:22;;;;;;;16.00;8.73;;;7.70;99.90;;;;;;5136361;27;20065;-66
2022/03/28 09:13:47;;;;;;;16.42;9.07;;;7.70;99.90;;;;;;5148174;27;20081;-67
2022/03/28 09:16:20;;;;;;;15.82;9.00;;;7.80;99.90;;;;;;5157309;27;20073;-67
2022/03/28 09:18:46;;;;;;;14.88;9.20;;;7.70;99.90;;;;;;5145399;27;20139;-67
2022/03/28 09:21:14;;;;;;;13.20;8.02;;;7.90;99.90;;;;;;5139657;27;20034;-67
2022/03/28 09:23:49;;;;;;;15.13;8.88;;;7.90;99.90;;;;;;5142691;27;20050;-66
2022/03/28 09:26:25;;;;;;;12.75;7.68;;;7.90;99.90;;;;;;5156195;27;20437;-67
2022/03/28 09:28:58;;;;;;;13.82;8.20;;;7.90;99.90;;;;;;5096215;27;20411;-67
2022/03/28 09:31:35;;;;;;;12.18;7.95;;;7.80;99.90;;;;;;5158383;27;20054;-67
2022/03/28 09:34:01;;;;;;;15.52;8.70;;;8.10;99.90;;;;;;5120207;27;20093;-66
2022/03/28 09:37:01;;;;;;;12.63;7.90;;;8.20;99.90;;;;;;5161605;27;20046;-66
2022/03/28 09:39:32;;;;;;;13.90;8.23;;;8.20;99.90;;;;;;5139391;27;20449;-66
2022/03/28 09:42:06;;;;;;;12.82;8.10;;;8.40;99.90;;;;;;5133446;27;20049;-67
2022/03/28 09:44:45;;;;;;;13.35;8.18;;;8.60;99.90;;;;;;5145121;27;20093;-66
2022/03/28 09:47:17;;;;;;;14.50;8.27;;;8.70;99.90;;;;;;5136139;27;20043;-67
2022/03/28 09:49:45;;;;;;;15.52;8.73;;;8.80;99.90;;;;;;5127342;27;20065;-66
2022/03/28 09:52:20;;;;;;;14.27;8.82;;;8.90;99.90;;;;;;5138508;27;20042;-67
2022/03/28 09:54:57;;;;;;;13.35;8.55;;;8.90;99.90;;;;;;5126871;27;20058;-67
2022/03/28 09:57:31;;;;;;;14.48;9.07;;;9.20;99.90;;;;;;5138048;27;20482;-67
2022/03/28 10:00:15;;;;;;;17.20;10.95;;;9.10;99.90;;;;;;5126634;27;20043;-67
2022/03/28 10:02:41;;;;;;;15.20;9.25;;;9.20;99.90;;;;;;5138101;27;20070;-66
2022/03/28 10:05:07;;;;;;;14.95;9.40;;;8.90;99.90;;;;;;5147872;27;20055;-66
2022/03/28 10:07:34;;;;;;;14.60;8.50;;;9.00;99.90;;;;;;5143472;27;20030;-66
2022/03/28 10:10:00;;;;;;;15.15;9.23;;;8.90;99.90;;;;;;5130453;27;20154;-66
2022/03/28 10:12:26;;;;;;;16.23;9.85;;;9.10;99.90;;;;;;5158433;27;20106;-65
2022/03/28 10:14:57;;;;;;;16.92;11.05;;;9.10;99.90;;;;;;5148049;27;20071;-66
2022/03/28 10:17:24;;;;;;;17.55;10.65;;;9.20;99.90;;;;;;5158936;27;20039;-66
2022/03/28 10:19:51;;;;;;;15.48;10.70;;;9.10;99.90;;;;;;5146077;27;20130;-66
2022/03/28 10:22:30;;;;;;;17.55;10.95;;;9.00;99.90;;;;;;5141612;27;20046;-66
2022/03/28 10:25:00;;;;;;;18.27;11.25;;;9.20;99.90;;;;;;5127338;27;20047;-66
2022/03/28 10:27:27;;;;;;;18.23;11.60;;;9.20;99.90;;;;;;5121117;27;20054;-67
2022/03/28 10:29:53;;;;;;;19.17;11.23;;;9.40;99.90;;;;;;5109818;27;20051;-67
2022/03/28 10:32:23;;;;;;;19.35;10.93;;;9.10;99.90;;;;;;5121087;27;20057;-67
2022/03/28 10:34:59;;;;;;;15.15;10.13;;;9.10;99.90;;;;;;5109088;27;20051;-66
2022/03/28 10:37:45;;;;;;;16.80;11.55;;;9.00;99.90;;;;;;5118952;27;20081;-66
2022/03/28 10:40:26;;;;;;;17.27;11.18;;;9.00;99.90;;;;;;5108202;27;20055;-66
2022/03/28 10:42:52;;;;;;;17.70;10.80;;;9.20;99.90;;;;;;5121062;27;20091;-66
2022/03/28 10:45:19;;;;;;;18.38;11.60;;;9.10;99.90;;;;;;5109092;27;20047;-66
2022/03/28 10:47:50;;;;;;;16.70;10.88;;;9.20;99.90;;;;;;5120732;27;20477;-67
2022/03/28 10:50:28;;;;;;;17.15;11.25;;;9.40;99.90;;;;;;5122283;27;20058;-67
2022/03/28 10:53:10;;;;;;;15.25;9.75;;;9.40;99.90;;;;;;5122461;27;20043;-67
2022/03/28 10:55:47;;;;;;;16.17;10.20;;;9.20;99.90;;;;;;5092669;27;20055;-67
2022/03/28 10:58:19;;;;;;;18.55;11.00;;;9.30;99.90;;;;;;5108615;27;20685;-67
2022/03/28 11:01:12;;;;;;;16.65;10.75;;;9.30;99.90;;;;;;5119808;27;20374;-66
2022/03/28 11:03:53;;;;;;;15.73;10.65;;;9.40;99.90;;;;;;5109759;27;20092;-66
2022/03/28 11:06:39;;;;;;;15.88;10.63;;;9.80;99.90;;;;;;5114097;27;20126;-67
2022/03/28 11:09:04;;;;;;;16.52;10.52;;;9.90;99.90;;;;;;5112105;27;20378;-67
2022/03/28 11:11:32;;;;;;;18.20;10.10;;;10.00;99.90;;;;;;5120658;27;20078;-67
2022/03/28 11:14:03;;;;;;;18.48;11.60;;;10.00;99.90;;;;;;5118444;27;20039;-68
2022/03/28 11:16:42;;;;;;;17.52;11.18;;;10.10;99.90;;;;;;5109444;27;20084;-69
2022/03/28 11:19:29;;;;;;;15.43;11.73;;;10.20;99.90;;;;;;5122413;27;20061;-68
2022/03/28 11:22:04;;;;;;;15.10;10.73;;;10.30;99.90;;;;;;5119491;27;20043;-69
2022/03/28 11:24:46;;;;;;;15.48;10.70;;;10.50;99.90;;;;;;5101511;28;20063;-68
2022/03/28 11:27:14;;;;;;;16.25;10.57;;;10.70;99.90;;;;;;5111720;27;20115;-68
2022/03/28 11:29:42;;;;;;;15.40;10.02;;;10.70;99.90;;;;;;5110377;27;20079;-68
2022/03/28 11:32:13;;;;;;;15.52;10.77;;;10.60;99.90;;;;;;5112494;28;20043;-68
2022/03/28 11:34:39;;;;;;;16.73;11.43;;;10.50;99.90;;;;;;5102997;27;20043;-67
2022/03/28 11:37:06;;;;;;;18.20;11.90;;;10.70;99.90;;;;;;5120042;27;20090;-67
2022/03/28 11:39:56;;;;;;;14.50;11.02;;;10.90;99.90;;;;;;5109296;27;20055;-67
2022/03/28 11:42:30;;;;;;;16.70;11.55;;;11.10;99.90;;;;;;5119292;27;20035;-67
2022/03/28 11:44:57;;;;;;;15.70;12.57;;;11.30;99.90;;;;;;5109244;27;20047;-67
2022/03/28 11:47:23;;;;;;;14.55;11.43;;;11.50;99.90;;;;;;5120295;27;20086;-68
2022/03/28 11:50:03;;;;;;;15.10;11.75;;;11.60;99.90;;;;;;5096236;28;20044;-68
2022/03/28 11:52:30;;;;;;;15.68;11.05;;;11.50;99.90;;;;;;5118805;27;20051;-68
2022/03/28 11:54:57;;;;;;;16.58;11.75;;;11.30;99.90;;;;;;5109005;27;20054;-68
2022/03/28 12:00:24;;;;;;;16.30;12.43;;;11.10;99.90;;;;;;5106181;27;20051;-68
2022/03/28 12:02:56;;;;;;;16.40;11.70;;;10.80;99.90;;;;;;5116933;27;20042;-67
2022/03/28 12:05:32;;;;;;;15.55;12.27;;;10.90;99.90;;;;;;5114056;27;20058;-69
2022/03/28 12:07:59;;;;;;;16.45;12.05;;;11.10;99.90;;;;;;5101431;27;20096;-68
2022/03/28 12:10:32;;;;;;;16.23;12.27;;;11.30;99.90;;;;;;5108870;27;20043;-68
2022/03/28 12:12:59;;;;;;;18.52;12.52;;;11.30;99.90;;;;;;5118092;27;20046;-68
2022/03/28 12:15:26;;;;;;;16.63;12.10;;;11.40;99.90;;;;;;5116328;27;20128;-68
2022/03/28 12:17:53;;;;;;;15.75;12.20;;;11.70;99.90;;;;;;5116960;27;20053;-68
2022/03/28 12:20:25;;;;;;;16.45;11.65;;;12.00;99.90;;;;;;5127103;27;20053;-69
2022/03/28 12:22:52;;;;;;;14.93;10.95;;;12.10;99.90;;;;;;5118928;27;20103;-68
2022/03/28 12:25:31;;;;;;;16.63;11.93;;;12.10;99.90;;;;;;5125093;27;20036;-68
2022/03/28 12:28:06;;;;;;;15.35;10.38;;;11.70;99.90;;;;;;5136294;27;20053;-68
2022/03/28 12:30:47;;;;;;;16.40;11.57;;;11.50;99.90;;;;;;5116858;27;20058;-68
2022/03/28 12:33:19;;;;;;;16.30;11.90;;;11.90;99.90;;;;;;5158363;27;20043;-68
2022/03/28 12:35:47;;;;;;;17.25;13.32;;;12.00;99.90;;;;;;5100191;27;20043;-69
2022/03/28 12:38:40;;;;;;;18.90;14.55;;;12.30;99.90;;;;;;5157103;27;20054;-68
2022/03/28 12:41:10;;;;;;;18.70;13.75;;;12.30;99.90;;;;;;5109180;27;20218;-69
2022/03/28 12:43:37;;;;;;;19.55;12.27;;;12.20;99.90;;;;;;5129235;27;20095;-68
2022/03/28 12:46:05;;;;;;;15.05;11.50;;;12.40;99.90;;;;;;5138770;27;20039;-68
2022/03/28 12:48:43;;;;;;;16.80;12.43;;;12.30;99.90;;;;;;5145434;27;20065;-68